Time;durP1;ratioP1;P1;durP2;ratioP2;P2;SDS_P1;SDS_P2;PMS_P1;PMS_P2;Temp;Humidity;BMP_temperature;BMP_pressure;BME280_temperature;BME280_humidity;BME280_pressure;Samples;Min_cycle;Max_cycle;Signal;HPM_P1;HPM_P2
2023/07/23 00:00:42;;;;;;;7.82;5.72;;;;;;;15.50;95.83;100816.25;5006021;28;20059;-77
2023/07/23 00:03:10;;;;;;;10.43;5.80;;;;;;;15.51;96.04;100809.13;4991612;28;20048;-77
2023/07/23 00:05:37;;;;;;;9.00;5.78;;;;;;;15.50;96.07;100802.97;4992894;28;20538;-77
2023/07/23 00:08:05;;;;;;;9.32;5.65;;;;;;;15.50;96.19;100787.03;5010384;28;20490;-77
2023/07/23 00:10:33;;;;;;;7.35;5.47;;;;;;;15.51;96.41;100793.19;4991024;28;20132;-77
2023/07/23 00:13:00;;;;;;;7.20;5.50;;;;;;;15.51;96.58;100785.22;5006586;28;20076;-77
2023/07/23 00:15:27;;;;;;;8.52;5.57;;;;;;;15.51;96.19;100778.13;4992320;28;20540;-77
2023/07/23 00:17:56;;;;;;;9.18;5.70;;;;;;;15.50;96.12;100778.19;5007751;28;20045;-77
2023/07/23 00:20:24;;;;;;;8.02;5.55;;;;;;;15.50;95.94;100773.75;5008061;28;20588;-78
2023/07/23 00:22:51;;;;;;;10.00;6.20;;;;;;;15.53;96.01;100756.78;4993984;28;20046;-78
2023/07/23 00:25:19;;;;;;;9.63;5.45;;;;;;;15.53;95.49;100760.28;4986700;28;20046;-78
2023/07/23 00:27:46;;;;;;;8.15;5.72;;;;;;;15.52;95.38;100755.91;5008405;28;20559;-78
2023/07/23 00:30:13;;;;;;;8.25;5.53;;;;;;;15.51;95.06;100746.25;4973110;28;20717;-77
2023/07/23 00:32:40;;;;;;;7.75;5.53;;;;;;;15.52;95.20;100745.28;4988509;28;20126;-80
2023/07/23 00:35:08;;;;;;;10.80;6.10;;;;;;;15.51;95.12;100740.94;4987524;28;20076;-80
2023/07/23 00:37:35;;;;;;;9.35;5.57;;;;;;;15.51;95.29;100740.06;4987514;28;20042;-80
2023/07/23 00:40:03;;;;;;;7.47;5.50;;;;;;;15.51;95.25;100740.94;5006872;28;20049;-81
2023/07/23 00:42:31;;;;;;;9.15;5.47;;;;;;;15.50;95.41;100733.00;4987756;28;20046;-80
2023/07/23 00:44:58;;;;;;;10.43;5.80;;;;;;;15.48;95.48;100724.25;5007163;28;20675;-80
2023/07/23 00:47:25;;;;;;;7.78;5.70;;;;;;;15.48;95.45;100732.22;5004634;28;20042;-80
2023/07/23 00:49:52;;;;;;;9.18;6.18;;;;;;;15.47;95.65;100718.09;5007860;28;20077;-81
2023/07/23 00:52:22;;;;;;;8.30;5.95;;;;;;;15.50;95.53;100714.41;4986072;28;20619;-80
2023/07/23 00:54:49;;;;;;;9.77;5.72;;;;;;;15.49;95.87;100712.69;4970757;28;20037;-80
2023/07/23 00:57:16;;;;;;;7.75;6.00;;;;;;;15.50;95.88;100706.44;5007473;28;20096;-80
2023/07/23 00:59:43;;;;;;;6.25;5.43;;;;;;;15.47;95.92;100699.50;5000274;28;20420;-80
2023/07/23 01:02:11;;;;;;;9.38;6.20;;;;;;;15.45;95.94;100696.06;4994515;28;20636;-81
2023/07/23 01:04:38;;;;;;;8.27;6.35;;;;;;;15.46;95.85;100686.31;4990582;28;20049;-77
2023/07/23 01:07:07;;;;;;;8.05;5.82;;;;;;;15.44;95.99;100688.19;4990072;28;20507;-79
2023/07/23 01:09:36;;;;;;;8.02;5.63;;;;;;;15.42;95.98;100682.94;5003464;28;20092;-80
2023/07/23 01:12:05;;;;;;;8.98;5.70;;;;;;;15.42;95.97;100679.44;5004299;28;20041;-80
2023/07/23 01:14:32;;;;;;;8.15;5.45;;;;;;;15.41;95.79;100675.06;5008693;28;20077;-80
2023/07/23 01:17:00;;;;;;;8.43;5.13;;;;;;;15.40;95.95;100674.22;4999561;28;20049;-80
2023/07/23 01:19:27;;;;;;;8.52;5.28;;;;;;;15.38;95.96;100658.34;5005003;28;20038;-79
2023/07/23 01:22:00;;;;;;;7.28;5.32;;;;;;;15.40;96.00;100662.72;5006180;28;20048;-79
2023/07/23 01:24:28;;;;;;;7.72;5.85;;;;;;;15.37;95.92;100661.94;5004935;28;20434;-79
2023/07/23 01:26:55;;;;;;;9.95;6.43;;;;;;;15.39;96.07;100661.88;5008750;28;20046;-79
2023/07/23 01:29:22;;;;;;;7.85;5.45;;;;;;;15.37;95.99;100651.31;4984959;28;20105;-80
2023/07/23 01:31:49;;;;;;;7.93;5.93;;;;;;;15.39;96.14;100651.25;4981805;28;20041;-79
2023/07/23 01:34:16;;;;;;;8.10;5.82;;;;;;;15.40;96.22;100647.66;5007034;28;20057;-80
2023/07/23 01:36:45;;;;;;;7.13;5.70;;;;;;;15.42;96.28;100644.91;4984684;28;20049;-79
2023/07/23 01:39:12;;;;;;;9.00;5.72;;;;;;;15.41;96.21;100633.44;4978922;28;20041;-80
2023/07/23 01:41:40;;;;;;;10.15;6.10;;;;;;;15.42;96.11;100631.63;4998313;28;20041;-78
2023/07/23 01:44:07;;;;;;;9.32;6.10;;;;;;;15.41;96.27;100621.94;4986507;28;20059;-79
2023/07/23 01:46:34;;;;;;;9.95;6.45;;;;;;;15.42;96.18;100626.31;4973661;28;20465;-81
2023/07/23 01:49:01;;;;;;;9.00;6.15;;;;;;;15.42;96.61;100619.19;4992350;28;20049;-80
2023/07/23 01:51:32;;;;;;;10.88;6.82;;;;;;;15.44;96.58;100619.13;5007733;28;20049;-79
2023/07/23 01:53:59;;;;;;;8.73;6.15;;;;;;;15.46;96.68;100619.91;5010397;28;20060;-81
2023/07/23 01:56:26;;;;;;;7.78;6.38;;;;;;;15.46;96.88;100609.28;5008623;28;20042;-79
2023/07/23 01:58:53;;;;;;;9.10;6.07;;;;;;;15.48;96.89;100612.69;5009983;28;20037;-80
2023/07/23 02:01:21;;;;;;;10.00;7.35;;;;;;;15.49;96.94;100609.09;5007033;28;20048;-80
2023/07/23 02:03:48;;;;;;;9.10;6.57;;;;;;;15.48;96.60;100602.06;4975372;28;20045;-80
2023/07/23 02:06:15;;;;;;;9.32;6.68;;;;;;;15.47;96.84;100593.25;4987639;28;20046;-81
2023/07/23 02:08:42;;;;;;;7.70;5.80;;;;;;;15.49;96.86;100590.50;4979746;28;20041;-81
2023/07/23 02:11:09;;;;;;;9.75;6.55;;;;;;;15.49;96.94;100588.72;4986509;28;20073;-76
2023/07/23 02:13:36;;;;;;;9.30;6.60;;;;;;;15.50;96.97;100578.94;5006462;28;20045;-75
2023/07/23 02:16:04;;;;;;;8.85;6.75;;;;;;;15.48;97.15;100575.50;4988020;28;20502;-77
2023/07/23 02:18:32;;;;;;;7.72;6.50;;;;;;;15.48;96.97;100570.19;5006674;28;20037;-78
2023/07/23 02:20:59;;;;;;;9.43;6.45;;;;;;;15.48;97.09;100565.75;4989030;28;20045;-78
2023/07/23 02:23:26;;;;;;;10.10;6.13;;;;;;;15.47;96.67;100566.69;5007646;28;21019;-78
2023/07/23 02:25:53;;;;;;;9.07;6.35;;;;;;;15.46;97.07;100553.50;4988704;28;20046;-78
2023/07/23 02:28:20;;;;;;;9.38;6.38;;;;;;;15.45;97.37;100549.97;5009892;28;20065;-78
2023/07/23 02:30:56;;;;;;;9.98;6.18;;;;;;;15.47;97.16;100549.88;5004139;28;20730;-78
2023/07/23 02:33:23;;;;;;;9.65;6.07;;;;;;;15.48;97.27;100547.16;5007792;28;20136;-77
2023/07/23 02:35:51;;;;;;;9.00;6.45;;;;;;;15.48;97.38;100549.81;5004477;28;20099;-77
2023/07/23 02:38:18;;;;;;;8.20;6.50;;;;;;;15.49;96.97;100545.34;4993304;28;20594;-77
2023/07/23 02:40:45;;;;;;;8.15;6.18;;;;;;;15.47;97.21;100542.78;4990214;28;20140;-77
2023/07/23 02:43:12;;;;;;;9.98;6.22;;;;;;;15.48;97.14;100536.53;4989138;28;20478;-78
2023/07/23 02:45:40;;;;;;;8.15;5.70;;;;;;;15.49;97.16;100540.03;4986067;28;20101;-77
2023/07/23 02:48:08;;;;;;;9.32;6.60;;;;;;;15.49;97.13;100540.91;5001325;28;20047;-77
2023/07/23 02:50:35;;;;;;;8.55;6.20;;;;;;;15.50;96.99;100534.66;4988094;28;20066;-77
2023/07/23 02:53:04;;;;;;;10.63;5.88;;;;;;;15.51;96.97;100528.41;4991001;28;20046;-78
2023/07/23 02:55:32;;;;;;;12.60;5.65;;;;;;;15.54;96.51;100538.00;4991230;28;20078;-77
2023/07/23 02:58:03;;;;;;;8.90;5.28;;;;;;;15.58;96.39;100533.34;4990685;28;20054;-77
2023/07/23 03:00:31;;;;;;;9.23;5.53;;;;;;;15.62;96.48;100526.91;4990765;28;20060;-75
2023/07/23 03:02:58;;;;;;;7.40;4.80;;;;;;;15.65;96.35;100524.09;4989124;28;20117;-80
2023/07/23 03:05:25;;;;;;;11.50;5.00;;;;;;;15.69;95.86;100517.66;5004240;28;20077;-78
2023/07/23 03:07:53;;;;;;;9.80;5.57;;;;;;;15.73;95.53;100516.53;4986997;28;20074;-76
2023/07/23 03:10:20;;;;;;;8.00;5.15;;;;;;;15.76;95.50;100524.34;4980128;28;20045;-76
2023/07/23 03:12:47;;;;;;;8.23;5.30;;;;;;;15.80;95.11;100525.00;4989960;28;20474;-76
2023/07/23 03:15:14;;;;;;;9.20;4.85;;;;;;;15.83;95.14;100519.53;4990276;28;20466;-76
2023/07/23 03:17:41;;;;;;;8.77;5.28;;;;;;;15.86;94.93;100515.88;4989923;28;20038;-77
2023/07/23 03:20:12;;;;;;;10.50;5.28;;;;;;;15.88;94.34;100516.63;5000660;28;20580;-77
2023/07/23 03:22:39;;;;;;;9.75;5.28;;;;;;;15.90;93.77;100517.41;4989301;28;20522;-75
2023/07/23 03:25:07;;;;;;;7.68;5.30;;;;;;;15.93;93.73;100510.13;5000584;28;20049;-76
2023/07/23 03:27:34;;;;;;;7.78;5.30;;;;;;;15.97;93.39;100516.09;4991119;28;20117;-75
2023/07/23 03:30:04;;;;;;;8.07;5.55;;;;;;;16.00;93.08;100513.28;4996202;28;20045;-76
2023/07/23 03:32:31;;;;;;;10.45;5.20;;;;;;;16.03;93.02;100509.56;4998453;28;20053;-75
2023/07/23 03:34:58;;;;;;;10.85;5.70;;;;;;;16.06;91.76;100515.56;4980825;28;20132;-76
2023/07/23 03:37:25;;;;;;;7.82;5.18;;;;;;;16.07;91.63;100514.63;4986683;28;20043;-75
2023/07/23 03:39:53;;;;;;;13.70;5.72;;;;;;;16.08;92.23;100511.03;4954944;28;20051;-76
2023/07/23 03:42:20;;;;;;;6.45;5.22;;;;;;;16.12;92.06;100509.91;4986203;28;20566;-76
2023/07/23 03:44:47;;;;;;;10.82;5.63;;;;;;;16.14;91.78;100507.16;4974458;28;20073;-76
2023/07/23 03:47:20;;;;;;;7.78;5.47;;;;;;;16.15;91.42;100504.38;4974157;28;20042;-76
2023/07/23 03:49:55;;;;;;;9.63;5.25;;;;;;;16.18;91.38;100503.34;4989768;28;20034;-76
2023/07/23 03:52:22;;;;;;;9.38;5.70;;;;;;;16.20;90.92;100513.91;4989081;28;20474;-77
2023/07/23 03:54:49;;;;;;;7.05;5.20;;;;;;;16.21;90.75;100497.84;4989561;28;20514;-77
2023/07/23 03:57:16;;;;;;;7.57;5.53;;;;;;;16.25;90.24;100501.16;4990028;28;20081;-77
2023/07/23 03:59:47;;;;;;;7.90;5.22;;;;;;;16.27;89.73;100499.28;4995620;28;20100;-77
2023/07/23 04:02:14;;;;;;;10.52;4.80;;;;;;;16.32;88.88;100502.53;4990326;28;20510;-77
2023/07/23 04:04:41;;;;;;;8.98;4.70;;;;;;;16.36;88.73;100489.91;4989882;28;20116;-76
2023/07/23 04:07:08;;;;;;;7.50;4.35;;;;;;;16.40;88.49;100494.94;4989424;28;20565;-78
2023/07/23 04:09:36;;;;;;;13.27;4.70;;;;;;;16.44;88.43;100492.97;5004780;28;20114;-77
2023/07/23 04:12:09;;;;;;;7.80;5.30;;;;;;;16.44;87.19;100491.13;4989822;28;20047;-76
2023/07/23 04:14:42;;;;;;;7.22;5.28;;;;;;;16.46;87.03;100491.06;4985402;28;20042;-79
2023/07/23 04:17:10;;;;;;;8.13;5.35;;;;;;;16.45;86.82;100495.50;4989660;28;20555;-79
2023/07/23 04:19:37;;;;;;;6.70;4.70;;;;;;;16.46;87.16;100488.41;4989627;28;20642;-78
2023/07/23 04:22:05;;;;;;;12.43;4.85;;;;;;;16.48;86.69;100490.97;4984614;28;20092;-76
2023/07/23 04:24:32;;;;;;;6.32;4.75;;;;;;;16.50;85.23;100491.72;4981018;28;20061;-79
2023/07/23 04:26:59;;;;;;;7.15;4.68;;;;;;;16.54;85.53;100493.25;4969449;28;20097;-78
2023/07/23 04:29:27;;;;;;;6.65;4.60;;;;;;;16.57;84.94;100495.72;4988879;28;20049;-79
2023/07/23 04:31:54;;;;;;;6.93;4.65;;;;;;;16.60;85.28;100487.56;4992895;28;20049;-79
2023/07/23 04:34:22;;;;;;;6.75;4.20;;;;;;;16.65;84.25;100492.59;4987286;28;20050;-78
2023/07/23 04:36:51;;;;;;;9.48;4.30;;;;;;;16.69;84.36;100492.31;4988891;28;20104;-78
2023/07/23 04:39:19;;;;;;;7.40;4.15;;;;;;;16.73;83.90;100491.19;5003353;28;20042;-78
2023/07/23 04:41:48;;;;;;;6.80;4.55;;;;;;;16.77;83.26;100492.69;4984037;28;20050;-80
2023/07/23 04:44:15;;;;;;;7.97;4.40;;;;;;;16.82;83.50;100495.06;4986894;28;20534;-80
2023/07/23 04:46:42;;;;;;;6.88;4.25;;;;;;;16.85;83.21;100497.53;4985233;28;20442;-79
2023/07/23 04:49:09;;;;;;;9.85;4.10;;;;;;;16.90;82.31;100499.91;4987622;28;20046;-78
2023/07/23 04:51:36;;;;;;;8.50;4.70;;;;;;;16.92;82.41;100504.19;4987362;28;20046;-80
2023/07/23 04:54:03;;;;;;;6.32;4.30;;;;;;;16.97;81.86;100503.94;4989994;28;20049;-77
2023/07/23 04:56:30;;;;;;;6.45;4.30;;;;;;;17.01;80.62;100505.47;4987390;28;20158;-78
2023/07/23 04:58:57;;;;;;;5.90;3.90;;;;;;;17.06;81.03;100500.69;4994178;28;20557;-77
2023/07/23 05:01:25;;;;;;;5.53;3.85;;;;;;;17.12;80.97;100501.28;4996257;28;20050;-78
2023/07/23 05:03:52;;;;;;;6.07;3.75;;;;;;;17.19;80.13;100503.47;4987098;28;20039;-80
2023/07/23 05:06:20;;;;;;;8.43;3.83;;;;;;;17.25;78.98;100496.00;4980469;28;20043;-77
2023/07/23 05:08:47;;;;;;;7.35;3.90;;;;;;;17.31;77.68;100490.28;4984286;28;20726;-77
2023/07/23 05:11:14;;;;;;;4.35;3.33;;;;;;;17.36;78.10;100501.50;4983438;28;20522;-78
2023/07/23 05:13:41;;;;;;;6.20;3.65;;;;;;;17.41;78.40;100495.88;4990239;28;20052;-77
2023/07/23 05:16:09;;;;;;;5.97;3.90;;;;;;;17.44;78.42;100493.88;4988447;28;20050;-78
2023/07/23 05:18:36;;;;;;;5.57;3.60;;;;;;;17.48;77.78;100495.41;4987331;28;20073;-78
2023/07/23 05:21:04;;;;;;;5.38;3.40;;;;;;;17.51;77.33;100499.66;4986953;28;20050;-80
2023/07/23 05:23:31;;;;;;;6.30;3.85;;;;;;;17.53;77.39;100495.09;4987389;28;20134;-79
2023/07/23 05:26:01;;;;;;;6.57;3.40;;;;;;;17.57;77.29;100490.41;4983086;28;20189;-80
2023/07/23 05:28:28;;;;;;;6.20;3.47;;;;;;;17.61;76.10;100486.56;4990114;28;20046;-80
2023/07/23 05:30:59;;;;;;;8.00;3.42;;;;;;;17.67;76.28;100492.38;4991851;28;20046;-80
2023/07/23 05:33:27;;;;;;;8.65;3.35;;;;;;;17.70;75.91;100494.00;4985015;28;20038;-78
2023/07/23 05:35:54;;;;;;;6.50;3.33;;;;;;;17.71;75.59;100495.69;4986187;28;20071;-78
2023/07/23 05:38:21;;;;;;;6.38;2.88;;;;;;;17.71;75.47;100493.00;4988550;28;20062;-78
2023/07/23 05:40:57;;;;;;;5.97;3.33;;;;;;;17.70;75.83;100494.00;4987954;28;20719;-77
2023/07/23 05:43:25;;;;;;;5.82;3.40;;;;;;;17.69;75.81;100487.78;4994779;28;20049;-77
2023/07/23 05:45:58;;;;;;;4.38;3.30;;;;;;;17.70;75.91;100491.34;4988014;28;20060;-77
2023/07/23 05:48:25;;;;;;;10.55;3.50;;;;;;;17.73;75.86;100490.28;5006353;28;20044;-78
2023/07/23 05:50:53;;;;;;;7.07;3.00;;;;;;;17.74;74.74;100486.66;5007756;28;20053;-77
2023/07/23 05:53:20;;;;;;;8.90;2.80;;;;;;;17.76;74.46;100490.03;5006876;28;20049;-84
2023/07/23 05:55:47;;;;;;;7.05;3.40;;;;;;;17.77;74.22;100494.41;5008123;28;20434;-85
2023/07/23 05:58:14;;;;;;;5.70;3.10;;;;;;;17.80;74.56;100496.91;5008779;28;20038;-77
2023/07/23 06:00:41;;;;;;;8.90;3.17;;;;;;;17.83;74.14;100494.03;4989857;28;20045;-76
2023/07/23 06:03:08;;;;;;;6.20;3.05;;;;;;;17.85;73.17;100492.97;5009904;28;20107;-76
2023/07/23 06:05:36;;;;;;;5.95;3.47;;;;;;;17.87;73.38;100495.53;4985831;28;20100;-77
2023/07/23 06:08:03;;;;;;;6.40;3.08;;;;;;;17.89;73.19;100490.09;5004541;28;20053;-76
2023/07/23 06:10:32;;;;;;;5.28;2.85;;;;;;;17.90;72.73;100491.81;5004365;28;20054;-84
2023/07/23 06:12:59;;;;;;;7.60;2.85;;;;;;;17.91;72.79;100491.72;4989507;28;20034;-78
2023/07/23 06:15:26;;;;;;;4.47;3.00;;;;;;;17.90;72.61;100490.00;5007434;28;20054;-77
2023/07/23 06:17:53;;;;;;;6.10;2.90;;;;;;;17.89;73.32;100490.94;4985880;28;20050;-77
2023/07/23 06:20:20;;;;;;;4.93;2.53;;;;;;;17.92;71.95;100490.75;4975029;28;20489;-77
2023/07/23 06:22:47;;;;;;;4.15;2.85;;;;;;;17.88;71.96;100499.91;5006037;28;20049;-76
2023/07/23 06:25:14;;;;;;;3.92;2.90;;;;;;;17.86;72.65;100499.13;4988074;28;20524;-75
2023/07/23 06:27:43;;;;;;;5.05;3.10;;;;;;;17.84;72.99;100501.09;5006663;28;20126;-75
2023/07/23 06:30:11;;;;;;;6.15;3.20;;;;;;;17.83;74.01;100497.53;5003120;28;20125;-75
2023/07/23 06:32:38;;;;;;;5.47;2.92;;;;;;;17.83;73.58;100500.22;4987742;28;20046;-76
2023/07/23 06:35:10;;;;;;;5.90;3.03;;;;;;;17.85;74.01;100494.78;5006668;28;20088;-74
2023/07/23 06:37:40;;;;;;;4.03;2.60;;;;;;;17.84;72.86;100507.25;4987672;28;20054;-76
2023/07/23 06:40:08;;;;;;;4.90;2.95;;;;;;;17.83;73.91;100510.03;5003663;28;20127;-77
2023/07/23 06:42:35;;;;;;;5.45;2.80;;;;;;;17.82;74.22;100503.81;4996570;28;20054;-73
2023/07/23 06:45:03;;;;;;;5.90;3.15;;;;;;;17.84;74.29;100514.41;5001349;28;20125;-73
2023/07/23 06:47:30;;;;;;;7.40;3.05;;;;;;;17.78;73.96;100512.13;5000391;28;20054;-73
2023/07/23 06:49:57;;;;;;;4.93;3.05;;;;;;;17.72;74.51;100512.53;5014300;28;20053;-73
2023/07/23 06:52:24;;;;;;;4.85;2.90;;;;;;;17.64;75.21;100519.25;5005735;28;20096;-73
2023/07/23 06:54:51;;;;;;;4.22;2.88;;;;;;;17.61;75.26;100516.75;4991161;28;20677;-73
2023/07/23 06:57:18;;;;;;;4.57;3.25;;;;;;;17.55;75.77;100519.81;4994848;28;20502;-72
2023/07/23 06:59:46;;;;;;;6.05;3.38;;;;;;;17.50;76.40;100527.25;5004716;28;20558;-72
2023/07/23 07:02:13;;;;;;;4.65;3.10;;;;;;;17.41;77.46;100526.03;5000074;28;20116;-73
2023/07/23 07:04:40;;;;;;;5.53;3.25;;;;;;;17.36;77.47;100528.16;4999824;28;20113;-73
2023/07/23 07:07:07;;;;;;;4.60;3.22;;;;;;;17.31;77.98;100520.47;5004581;28;20046;-73
2023/07/23 07:09:34;;;;;;;3.88;2.88;;;;;;;17.31;77.91;100525.78;5006266;28;20038;-72
2023/07/23 07:12:03;;;;;;;6.28;2.90;;;;;;;17.33;78.13;100531.00;5007299;28;20038;-73
2023/07/23 07:14:30;;;;;;;4.00;3.00;;;;;;;17.34;78.76;100522.94;5003129;28;20523;-72
2023/07/23 07:16:57;;;;;;;4.10;3.00;;;;;;;17.41;78.75;100526.03;5006411;28;20102;-73
2023/07/23 07:19:24;;;;;;;6.78;3.28;;;;;;;17.47;78.42;100525.66;5006224;28;20046;-72
2023/07/23 07:21:51;;;;;;;6.40;3.28;;;;;;;17.57;78.68;100527.72;5003251;28;20050;-70
2023/07/23 07:24:19;;;;;;;5.97;3.05;;;;;;;17.68;78.86;100528.72;4987494;28;20764;-72
2023/07/23 07:26:46;;;;;;;4.47;3.13;;;;;;;17.74;78.14;100529.31;5007784;28;20044;-71
2023/07/23 07:29:15;;;;;;;5.50;3.25;;;;;;;17.74;76.21;100524.81;5008352;28;20080;-71
2023/07/23 07:31:42;;;;;;;6.20;3.30;;;;;;;17.69;76.83;100540.25;5010961;28;20405;-71
2023/07/23 07:34:09;;;;;;;5.40;3.25;;;;;;;17.64;76.52;100529.03;4989876;28;20169;-71
2023/07/23 07:36:38;;;;;;;3.65;2.65;;;;;;;17.62;77.23;100539.81;4968052;28;20117;-71
2023/07/23 07:39:05;;;;;;;6.00;3.10;;;;;;;17.65;77.42;100539.59;5008688;28;20397;-71
2023/07/23 07:41:34;;;;;;;5.68;3.20;;;;;;;17.65;77.13;100536.91;5009397;28;20206;-71
2023/07/23 07:44:01;;;;;;;6.25;3.08;;;;;;;17.67;77.61;100540.34;5006404;28;20068;-71
2023/07/23 07:46:28;;;;;;;4.82;3.15;;;;;;;17.69;78.22;100529.59;5007611;28;20104;-72
2023/07/23 07:48:56;;;;;;;5.07;3.10;;;;;;;17.68;78.62;100541.22;4974736;28;20050;-71
2023/07/23 07:51:23;;;;;;;4.32;2.90;;;;;;;17.67;79.17;100534.16;5004168;28;20100;-75
2023/07/23 07:53:50;;;;;;;6.40;3.50;;;;;;;17.58;79.25;100532.09;5003249;28;20049;-75
2023/07/23 07:56:18;;;;;;;5.38;3.35;;;;;;;17.46;79.65;100531.06;4992266;28;20045;-75
2023/07/23 07:58:46;;;;;;;5.03;3.45;;;;;;;17.39;80.06;100538.63;4989365;28;20592;-75
2023/07/23 08:01:13;;;;;;;8.82;3.55;;;;;;;17.38;80.69;100532.41;4990367;28;20038;-75
2023/07/23 08:03:46;;;;;;;6.13;3.78;;;;;;;17.37;80.85;100530.72;4991006;28;20128;-74
2023/07/23 08:06:16;;;;;;;4.72;3.42;;;;;;;17.41;80.31;100528.69;4999613;28;20119;-75
2023/07/23 08:08:45;;;;;;;6.13;3.53;;;;;;;17.43;80.39;100528.63;5004149;28;20042;-75
2023/07/23 08:11:13;;;;;;;4.75;3.20;;;;;;;17.47;80.08;100531.00;5004910;28;20042;-75
2023/07/23 08:13:41;;;;;;;5.90;3.40;;;;;;;17.54;79.33;100534.13;5005854;28;20052;-75
2023/07/23 08:16:12;;;;;;;4.63;3.47;;;;;;;17.61;79.38;100530.09;5004238;28;20050;-75
2023/07/23 08:18:40;;;;;;;6.63;3.97;;;;;;;17.78;79.64;100526.34;5007604;28;20065;-76
2023/07/23 08:21:12;;;;;;;5.65;3.50;;;;;;;17.92;78.46;100533.41;4990056;28;20086;-75
2023/07/23 08:23:41;;;;;;;8.25;3.85;;;;;;;18.02;78.89;100523.00;5002129;28;20048;-75
2023/07/23 08:26:14;;;;;;;4.63;3.63;;;;;;;18.13;78.18;100524.97;4973220;28;20062;-76
2023/07/23 08:28:51;;;;;;;6.28;3.80;;;;;;;18.19;77.11;100527.22;5007663;28;20042;-76
2023/07/23 08:31:19;;;;;;;6.05;3.13;;;;;;;18.32;76.98;100521.91;5008468;28;20505;-76
2023/07/23 08:33:48;;;;;;;6.75;3.53;;;;;;;18.54;76.65;100517.75;4987906;28;20708;-76
2023/07/23 08:36:16;;;;;;;7.47;3.20;;;;;;;18.65;76.28;100525.88;5011414;28;20124;-76
2023/07/23 08:38:44;;;;;;;4.60;2.90;;;;;;;18.69;75.98;100524.72;5007701;28;20064;-76
2023/07/23 08:41:45;;;;;;;4.05;2.85;;;;;;;18.77;75.58;100530.38;4976654;28;20047;-76
2023/07/23 08:45:07;;;;;;;4.68;2.85;;;;;;;18.73;74.87;100518.19;5002058;28;20065;-76
2023/07/23 08:47:38;;;;;;;4.03;2.70;;;;;;;18.65;75.25;100522.38;4984138;28;20057;-75
2023/07/23 08:50:08;;;;;;;3.40;2.47;;;;;;;18.60;75.81;100526.19;4990102;28;20074;-76
2023/07/23 08:52:35;;;;;;;4.03;2.60;;;;;;;18.62;76.35;100524.28;4992190;28;20096;-75
2023/07/23 08:55:03;;;;;;;4.50;2.45;;;;;;;18.66;76.51;100519.59;4988214;28;20042;-76
2023/07/23 08:57:33;;;;;;;4.57;2.40;;;;;;;18.66;76.42;100532.94;4988346;28;20053;-75
2023/07/23 09:00:02;;;;;;;5.15;2.50;;;;;;;18.64;76.76;100526.84;4987553;28;20041;-75
2023/07/23 09:02:35;;;;;;;3.90;2.22;;;;;;;18.60;76.44;100534.22;5002107;28;20042;-75
2023/07/23 09:05:02;;;;;;;2.90;2.00;;;;;;;18.55;76.90;100536.34;4986206;28;20046;-76
2023/07/23 09:07:30;;;;;;;4.97;2.17;;;;;;;18.56;76.61;100531.84;4998056;28;20132;-76
2023/07/23 09:09:58;;;;;;;3.35;2.10;;;;;;;18.52;77.23;100531.22;4981269;28;20070;-76
2023/07/23 09:12:27;;;;;;;4.30;2.42;;;;;;;18.46;77.37;100526.31;4985655;28;20106;-76
2023/07/23 09:14:54;;;;;;;5.18;2.30;;;;;;;18.41;77.71;100534.63;5002930;28;20042;-77
2023/07/23 09:17:29;;;;;;;3.60;2.03;;;;;;;18.44;77.69;100533.56;4983847;28;20049;-75
2023/07/23 09:20:00;;;;;;;3.95;2.10;;;;;;;18.37;78.15;100533.13;4980432;28;20553;-77
2023/07/23 09:22:31;;;;;;;4.18;2.30;;;;;;;18.35;78.64;100534.19;4984768;28;20112;-75
2023/07/23 09:25:04;;;;;;;4.00;2.45;;;;;;;18.38;78.60;100541.97;4983459;28;20042;-76
2023/07/23 09:27:42;;;;;;;4.50;1.90;;;;;;;18.41;78.66;100534.63;4983257;28;20038;-76
2023/07/23 09:30:18;;;;;;;3.10;2.03;;;;;;;18.43;78.82;100532.69;4980752;28;20045;-77
2023/07/23 09:32:57;;;;;;;2.92;2.33;;;;;;;18.51;78.93;100534.84;4981056;28;20086;-77
2023/07/23 09:35:30;;;;;;;2.67;2.22;;;;;;;18.55;78.66;100535.47;4986785;28;20034;-77
2023/07/23 09:37:58;;;;;;;4.20;2.13;;;;;;;18.58;78.89;100536.13;4986339;28;20490;-77
2023/07/23 09:40:34;;;;;;;2.58;1.90;;;;;;;18.63;78.67;100535.81;5000670;28;20050;-76
2023/07/23 09:43:02;;;;;;;2.67;1.80;;;;;;;18.61;79.70;100540.44;4982690;28;20173;-77
2023/07/23 09:45:39;;;;;;;4.18;1.80;;;;;;;18.63;79.93;100546.47;4964762;28;20034;-76
2023/07/23 09:48:08;;;;;;;3.05;1.67;;;;;;;18.62;79.83;100545.66;4980400;28;20061;-77
2023/07/23 09:50:45;;;;;;;2.75;1.80;;;;;;;18.67;80.47;100541.81;4980480;28;20042;-78
2023/07/23 09:53:15;;;;;;;3.25;1.90;;;;;;;18.65;80.55;100546.41;4981365;28;20648;-77
2023/07/23 09:55:46;;;;;;;2.55;1.75;;;;;;;18.59;80.62;100547.69;4983858;28;20057;-77
2023/07/23 09:58:17;;;;;;;3.05;1.75;;;;;;;18.57;80.88;100541.59;4982800;28;20117;-77
2023/07/23 10:00:47;;;;;;;1.60;1.40;;;;;;;18.52;81.44;100554.41;4980654;28;20121;-78
2023/07/23 10:03:17;;;;;;;2.33;1.70;;;;;;;18.56;82.00;100545.22;5003158;28;20498;-77
2023/07/23 10:05:45;;;;;;;2.67;1.40;;;;;;;18.58;82.15;100548.63;4988137;28;20510;-77
2023/07/23 10:08:13;;;;;;;2.53;1.77;;;;;;;18.55;82.83;100555.03;4986909;28;20129;-77
2023/07/23 10:10:40;;;;;;;2.50;1.70;;;;;;;18.56;83.29;100556.75;4984125;28;20038;-78
2023/07/23 10:13:07;;;;;;;2.00;1.60;;;;;;;18.57;83.46;100549.59;4988875;28;20038;-77
2023/07/23 10:15:37;;;;;;;2.17;1.52;;;;;;;18.59;84.00;100555.69;4986766;28;20120;-78
2023/07/23 10:18:06;;;;;;;2.25;1.70;;;;;;;18.59;83.84;100553.00;4988046;28;20461;-78
2023/07/23 10:20:35;;;;;;;2.35;1.42;;;;;;;18.53;83.51;100558.75;4984273;28;20375;-77
2023/07/23 10:23:05;;;;;;;2.40;1.42;;;;;;;18.46;84.10;100555.69;4989706;28;20053;-79
2023/07/23 10:25:35;;;;;;;2.13;1.65;;;;;;;18.50;84.75;100558.97;4981052;28;20706;-80
2023/07/23 10:28:10;;;;;;;2.28;1.40;;;;;;;18.46;85.43;100555.69;4985055;28;20046;-79
2023/07/23 10:30:37;;;;;;;1.80;1.40;;;;;;;18.38;85.83;100557.97;4984361;28;20121;-78
2023/07/23 10:33:10;;;;;;;3.70;1.63;;;;;;;18.38;86.59;100563.31;4987987;28;20049;-80
2023/07/23 10:36:02;;;;;;;1.77;1.52;;;;;;;18.36;86.99;100562.59;4982712;28;20124;-77
2023/07/23 10:38:35;;;;;;;1.67;1.42;;;;;;;18.31;87.39;100560.25;4998506;28;20470;-78
2023/07/23 10:41:03;;;;;;;2.63;1.70;;;;;;;18.19;87.84;100561.06;4995882;28;20033;-77
2023/07/23 10:43:46;;;;;;;1.92;1.50;;;;;;;18.07;88.43;100555.56;4984116;28;20130;-77
2023/07/23 10:46:18;;;;;;;2.15;1.65;;;;;;;17.94;88.67;100554.63;5006578;28;20057;-78
2023/07/23 10:48:51;;;;;;;2.30;1.65;;;;;;;17.87;89.16;100562.19;5007926;28;20034;-78
2023/07/23 10:51:23;;;;;;;4.50;1.67;;;;;;;17.81;89.86;100557.25;5005667;28;20623;-78
2023/07/23 10:54:06;;;;;;;2.50;1.60;;;;;;;17.78;90.47;100558.31;5004635;28;20113;-77
2023/07/23 10:56:39;;;;;;;1.52;1.42;;;;;;;17.79;90.79;100559.16;4985606;28;20041;-77
2023/07/23 10:59:21;;;;;;;1.52;1.40;;;;;;;17.79;90.96;100557.38;5010257;28;20054;-76
2023/07/23 11:01:51;;;;;;;2.00;1.60;;;;;;;17.80;90.92;100560.88;5010409;28;20041;-77
2023/07/23 11:04:26;;;;;;;2.45;1.60;;;;;;;17.76;91.11;100560.22;5010159;28;20038;-77
2023/07/23 11:06:57;;;;;;;2.25;1.50;;;;;;;17.74;90.95;100564.78;5009679;28;20148;-76
2023/07/23 11:09:29;;;;;;;2.50;1.70;;;;;;;17.74;91.21;100563.97;5010635;28;20042;-76
2023/07/23 11:11:57;;;;;;;2.05;1.67;;;;;;;17.78;91.65;100557.44;5007560;28;20045;-76
2023/07/23 11:14:29;;;;;;;1.95;1.60;;;;;;;17.79;91.19;100570.69;5012414;28;20038;-77
2023/07/23 11:17:00;;;;;;;2.33;1.58;;;;;;;17.81;90.95;100571.44;4994319;28;20042;-77
2023/07/23 11:19:30;;;;;;;2.10;1.50;;;;;;;17.91;91.38;100570.81;4992184;28;20049;-75
2023/07/23 11:22:03;;;;;;;1.88;1.60;;;;;;;17.97;91.84;100565.97;4977645;28;20037;-76
2023/07/23 11:24:32;;;;;;;2.00;1.80;;;;;;;18.05;91.79;100565.50;5017335;28;20084;-77
2023/07/23 11:27:03;;;;;;;2.22;2.03;;;;;;;18.13;91.21;100567.66;5009482;28;20049;-76
2023/07/23 11:29:31;;;;;;;1.80;1.70;;;;;;;18.18;90.74;100565.50;4987820;28;20061;-75
2023/07/23 11:32:03;;;;;;;2.00;1.60;;;;;;;18.23;90.91;100573.22;5008889;28;20651;-76